This is the latest recevied weather packets stored in our database for station/object EA3CH. If no packets are shown the sender has not sent any weather packets the latest 10 day(s).
| Time | Temp. | Humidity | Pressure | Rain* | Wind** | Luminosity | Snow |
|---|---|---|---|---|---|---|---|
| 1788021906 | 28.33° C | 47% | 1018 hPa | 0 mm | - | 0 W/m² | - |
| 1788021904 | 27.78° C | 56% | 1018.2 hPa | 0 mm | - | 0 W/m² | - |
| 1788021004 | 28.33° C | 53% | 1018.2 hPa | 0 mm | - | 0 W/m² | - |
| 1788020104 | 28.89° C | 35% | 1018.3 hPa | 0 mm | - | 0 W/m² | - |
| 1788019205 | 29.44° C | 35% | 1018.2 hPa | 0 mm | - | 0 W/m² | - |
| 1788018304 | 29.44° C | 36% | 1018.4 hPa | 0 mm | - | 0 W/m² | - |
| 1788017406 | 29.44° C | 27% | 1018.3 hPa | 0 mm | - | 0 W/m² | - |
| 1788017404 | 29.44° C | 37% | 1018.6 hPa | 0 mm | - | 0 W/m² | - |
| 1788016511 | 29.44° C | 37% | 1018.6 hPa | 0 mm | - | 0 W/m² | - |
| 1788015607 | 29.44° C | 27% | 1018.6 hPa | 0 mm | - | 0 W/m² | - |
| 1788015604 | 29.44° C | 35% | 1018.7 hPa | 0 mm | - | 0 W/m² | - |
| 1788014707 | 29.44° C | 27% | 1018.6 hPa | 0 mm | - | 0 W/m² | - |
| 1788013804 | 29.44° C | 36% | 1018.9 hPa | 0 mm | - | 0 W/m² | - |
| 1788012903 | 29.44° C | 37% | 1019 hPa | 0 mm | - | 0 W/m² | - |
| 1788012004 | 29.44° C | 37% | 1019 hPa | 0 mm | - | 0 W/m² | - |
| 1788011104 | 29.44° C | 37% | 1019.1 hPa | 0 mm | - | 0 W/m² | - |
| 1788010214 | 30° C | 37% | 1019.2 hPa | 0 mm | - | 0 W/m² | - |
| 1788009306 | 29.44° C | 29% | 1019.1 hPa | 0 mm | - | 0 W/m² | - |
| 1788009303 | 30° C | 38% | 1019.3 hPa | 0 mm | - | 0 W/m² | - |
| 1788008406 | 29.44° C | 30% | 1019.2 hPa | 0 mm | - | 0 W/m² | - |
| 1788008404 | 29.44° C | 39% | 1019.3 hPa | 0 mm | - | 0 W/m² | - |
| 1788007506 | 28.33° C | 33% | 1019.4 hPa | 0 mm | - | 0 W/m² | - |
| 1788007504 | 28.89° C | 41% | 1019.6 hPa | 0 mm | - | 0 W/m² | - |
| 1788006604 | 28.89° C | 42% | 1019.6 hPa | 0 mm | - | 0 W/m² | - |
| 1788005704 | 28.33° C | 44% | 1019.8 hPa | 0 mm | - | 0 W/m² | - |
* Rain latest hour (hover to see other rain measurements)
** Current wind speed in m/s (hover to see current wind gust speed)